Time;durP1;ratioP1;P1;durP2;ratioP2;P2;SDS_P1;SDS_P2;PMS_P1;PMS_P2;Temp;Humidity;BMP_temperature;BMP_pressure;BME280_temperature;BME280_humidity;BME280_pressure;Samples;Min_cycle;Max_cycle;Signal;HPM_P1;HPM_P2
2023/02/04 00:03:19;;;;;;;22.48;15.27;;;;;;;;;;10349126;28;20030;-66
2023/02/04 00:08:20;;;;;;;23.83;15.20;;;;;;;;;;10364785;28;20026;-66
2023/02/04 00:13:20;;;;;;;23.70;14.90;;;;;;;;;;10364520;28;20022;-64
2023/02/04 00:18:21;;;;;;;24.30;14.90;;;;;;;;;;10358107;28;20083;-66
2023/02/04 00:23:21;;;;;;;21.38;14.68;;;;;;;;;;10364235;28;20026;-66
2023/02/04 00:28:22;;;;;;;22.15;15.95;;;;;;;;;;10354165;28;20037;-68
2023/02/04 00:33:23;;;;;;;20.17;14.27;;;;;;;;;;10358683;28;20038;-68
2023/02/04 00:38:23;;;;;;;25.55;14.77;;;;;;;;;;10353363;28;20041;-68
2023/02/04 00:43:24;;;;;;;23.95;14.15;;;;;;;;;;10365483;28;20017;-67
2023/02/04 00:48:24;;;;;;;19.65;13.68;;;;;;;;;;10357856;28;20022;-68
2023/02/04 00:53:25;;;;;;;25.25;14.52;;;;;;;;;;10364279;28;20034;-68
2023/02/04 00:58:25;;;;;;;20.65;14.10;;;;;;;;;;10352550;28;20030;-68
2023/02/04 01:03:26;;;;;;;19.67;13.05;;;;;;;;;;10364213;28;20022;-68
2023/02/04 01:08:26;;;;;;;18.25;13.82;;;;;;;;;;10353985;28;20473;-68
2023/02/04 01:13:27;;;;;;;17.55;13.55;;;;;;;;;;10362482;28;20041;-68
2023/02/04 01:18:28;;;;;;;25.95;14.40;;;;;;;;;;10360519;28;20034;-67
2023/02/04 01:23:28;;;;;;;17.58;12.85;;;;;;;;;;10368417;28;20076;-68
2023/02/04 01:28:29;;;;;;;17.27;13.25;;;;;;;;;;10348096;28;20041;-68
2023/02/04 01:33:30;;;;;;;17.73;13.27;;;;;;;;;;10367976;28;20022;-69
2023/02/04 01:38:30;;;;;;;24.73;13.57;;;;;;;;;;10353904;28;20050;-66
2023/02/04 01:43:32;;;;;;;19.92;13.38;;;;;;;;;;10356132;28;20022;-65
2023/02/04 01:48:32;;;;;;;18.67;12.98;;;;;;;;;;10350391;28;20021;-69
2023/02/04 01:53:34;;;;;;;18.80;13.02;;;;;;;;;;10356280;28;20058;-69
2023/02/04 01:58:36;;;;;;;18.83;13.15;;;;;;;;;;10370360;28;20062;-69
2023/02/04 02:03:36;;;;;;;17.52;13.32;;;;;;;;;;10371302;28;20057;-68
2023/02/04 02:08:37;;;;;;;21.20;13.20;;;;;;;;;;10371056;28;20076;-66
2023/02/04 02:13:38;;;;;;;18.95;13.38;;;;;;;;;;10370181;28;20022;-67
2023/02/04 02:18:38;;;;;;;19.17;13.50;;;;;;;;;;10370266;28;20029;-68
2023/02/04 02:23:56;;;;;;;18.08;12.73;;;;;;;;;;10369492;28;20034;-65
2023/02/04 02:28:56;;;;;;;17.50;12.63;;;;;;;;;;10331771;28;20474;-65
2023/02/04 02:33:57;;;;;;;16.98;12.27;;;;;;;;;;10356972;28;20025;-68
2023/02/04 02:38:58;;;;;;;23.02;12.95;;;;;;;;;;10369155;28;20045;-67
2023/02/04 02:43:59;;;;;;;20.90;13.65;;;;;;;;;;10368349;28;20504;-67
2023/02/04 02:49:00;;;;;;;19.60;13.02;;;;;;;;;;10368728;28;20022;-68
2023/02/04 02:54:01;;;;;;;19.50;13.07;;;;;;;;;;10368186;28;20030;-68
2023/02/04 02:59:16;;;;;;;19.30;13.10;;;;;;;;;;10368759;28;20029;-55
2023/02/04 03:04:18;;;;;;;19.13;13.20;;;;;;;;;;10369111;28;20106;-52
2023/02/04 03:09:19;;;;;;;17.45;12.85;;;;;;;;;;10365798;28;20052;-68
2023/02/04 03:14:21;;;;;;;20.27;13.55;;;;;;;;;;10339459;28;20030;-66
2023/02/04 03:19:24;;;;;;;17.73;12.88;;;;;;;;;;10343457;28;20429;-66
2023/02/04 03:24:25;;;;;;;18.08;12.80;;;;;;;;;;10346862;28;20026;-62
2023/02/04 03:29:26;;;;;;;16.95;12.88;;;;;;;;;;10343739;28;20029;-66
2023/02/04 03:34:26;;;;;;;17.38;13.00;;;;;;;;;;10348497;28;20053;-68
2023/02/04 03:39:27;;;;;;;19.83;13.57;;;;;;;;;;10331064;28;20041;-66
2023/02/04 03:44:27;;;;;;;17.77;13.27;;;;;;;;;;10339906;28;20038;-67
2023/02/04 03:49:28;;;;;;;17.73;12.95;;;;;;;;;;10353561;28;20030;-67
2023/02/04 03:54:29;;;;;;;18.65;13.05;;;;;;;;;;10319516;28;20026;-67
2023/02/04 03:59:29;;;;;;;19.85;13.32;;;;;;;;;;10328396;28;20042;-67
2023/02/04 04:04:30;;;;;;;19.17;13.75;;;;;;;;;;10332556;28;20081;-67
2023/02/04 04:09:30;;;;;;;18.38;13.32;;;;;;;;;;10335624;28;20026;-67
2023/02/04 04:14:31;;;;;;;18.05;13.98;;;;;;;;;;10341610;28;20061;-67
2023/02/04 04:19:32;;;;;;;21.52;13.73;;;;;;;;;;10329507;28;20038;-63
2023/02/04 04:24:32;;;;;;;19.65;13.75;;;;;;;;;;10334935;28;20030;-67
2023/02/04 04:29:33;;;;;;;20.10;14.27;;;;;;;;;;10327095;28;20037;-66
2023/02/04 04:34:33;;;;;;;17.98;12.27;;;;;;;;;;10327363;28;20105;-66
2023/02/04 04:39:34;;;;;;;18.67;13.05;;;;;;;;;;10326807;28;20414;-67
2023/02/04 04:44:34;;;;;;;16.05;12.93;;;;;;;;;;10326962;28;20466;-67
2023/02/04 04:49:35;;;;;;;16.75;13.05;;;;;;;;;;10348067;28;20429;-67
2023/02/04 04:54:36;;;;;;;17.00;12.75;;;;;;;;;;10332075;28;20397;-68
2023/02/04 04:59:36;;;;;;;18.52;12.98;;;;;;;;;;10341708;28;20034;-67
2023/02/04 05:04:37;;;;;;;19.67;13.75;;;;;;;;;;10349065;28;20018;-66
2023/02/04 05:09:37;;;;;;;19.92;13.65;;;;;;;;;;10349238;28;20648;-63
2023/02/04 05:14:38;;;;;;;18.95;13.18;;;;;;;;;;10340792;28;20025;-66
2023/02/04 05:19:38;;;;;;;20.38;13.68;;;;;;;;;;10346239;28;20034;-67
2023/02/04 05:24:39;;;;;;;19.95;13.30;;;;;;;;;;10333126;28;20023;-68
2023/02/04 05:29:40;;;;;;;19.23;12.98;;;;;;;;;;10333244;28;20037;-67
2023/02/04 05:34:40;;;;;;;17.50;12.75;;;;;;;;;;10340409;28;20030;-68
2023/02/04 05:39:41;;;;;;;19.13;14.40;;;;;;;;;;10350538;28;20033;-67
2023/02/04 05:44:41;;;;;;;16.20;11.90;;;;;;;;;;10356273;28;20018;-68
2023/02/04 05:49:42;;;;;;;17.83;13.25;;;;;;;;;;10357859;28;20026;-67
2023/02/04 05:54:42;;;;;;;19.85;14.60;;;;;;;;;;10333665;28;20037;-67
2023/02/04 05:59:43;;;;;;;18.48;12.98;;;;;;;;;;10340463;28;20030;-67
2023/02/04 06:04:44;;;;;;;16.60;13.25;;;;;;;;;;10345066;28;20048;-67
2023/02/04 06:09:44;;;;;;;17.30;12.85;;;;;;;;;;10351498;28;20029;-67
2023/02/04 06:14:45;;;;;;;18.92;13.50;;;;;;;;;;10358076;28;20044;-67
2023/02/04 06:19:45;;;;;;;18.33;13.02;;;;;;;;;;10351066;28;20026;-67
2023/02/04 06:24:46;;;;;;;20.42;13.80;;;;;;;;;;10339728;28;20030;-56
2023/02/04 06:29:46;;;;;;;20.98;12.57;;;;;;;;;;10346673;28;20028;-51
2023/02/04 06:34:47;;;;;;;21.60;12.73;;;;;;;;;;10352334;28;20026;-64
2023/02/04 06:39:47;;;;;;;17.20;13.05;;;;;;;;;;10330523;28;20116;-67
2023/02/04 06:44:48;;;;;;;18.08;13.18;;;;;;;;;;10329909;28;20026;-67
2023/02/04 06:49:49;;;;;;;16.00;12.40;;;;;;;;;;10359849;28;20046;-57
2023/02/04 06:54:49;;;;;;;19.38;12.80;;;;;;;;;;10332922;28;20030;-66
2023/02/04 06:59:50;;;;;;;17.00;12.65;;;;;;;;;;10335093;28;20034;-55
2023/02/04 07:04:50;;;;;;;16.05;12.82;;;;;;;;;;10336037;28;20053;-56
2023/02/04 07:09:51;;;;;;;14.45;11.10;;;;;;;;;;10341774;28;20030;-52
2023/02/04 07:14:51;;;;;;;15.45;11.27;;;;;;;;;;10347487;28;20022;-50
2023/02/04 07:19:52;;;;;;;14.15;10.75;;;;;;;;;;10341206;28;20032;-50
2023/02/04 07:24:53;;;;;;;13.93;10.88;;;;;;;;;;10335011;28;20421;-50
2023/02/04 07:29:53;;;;;;;14.32;11.63;;;;;;;;;;10328734;28;20041;-59
2023/02/04 07:34:54;;;;;;;14.75;11.07;;;;;;;;;;10336329;28;20029;-51
2023/02/04 07:39:54;;;;;;;15.10;10.77;;;;;;;;;;10338270;28;20041;-51
2023/02/04 07:44:55;;;;;;;17.05;11.43;;;;;;;;;;10332376;28;20109;-53
2023/02/04 07:49:56;;;;;;;13.13;10.90;;;;;;;;;;10330236;28;20026;-59
2023/02/04 07:54:56;;;;;;;14.02;11.40;;;;;;;;;;10324530;28;20030;-51
2023/02/04 07:59:58;;;;;;;15.23;11.40;;;;;;;;;;10322936;28;20034;-51
2023/02/04 08:04:58;;;;;;;12.23;10.35;;;;;;;;;;10326696;28;20052;-61
2023/02/04 08:09:59;;;;;;;14.02;10.32;;;;;;;;;;10329252;28;20474;-60
2023/02/04 08:15:00;;;;;;;12.80;10.65;;;;;;;;;;10328859;28;20497;-66
2023/02/04 08:20:01;;;;;;;10.98;9.48;;;;;;;;;;10326791;28;20577;-50
2023/02/04 08:25:04;;;;;;;12.13;10.02;;;;;;;;;;10326845;28;20030;-51
2023/02/04 08:30:05;;;;;;;12.73;9.45;;;;;;;;;;10327478;28;20157;-51
2023/02/04 08:35:07;;;;;;;13.65;10.23;;;;;;;;;;10326422;28;20050;-65
2023/02/04 08:40:10;;;;;;;13.52;10.10;;;;;;;;;;10327408;28;20031;-52
2023/02/04 08:45:11;;;;;;;11.90;9.30;;;;;;;;;;10325903;28;20062;-48
2023/02/04 08:50:11;;;;;;;10.77;8.55;;;;;;;;;;10324143;28;20030;-50
2023/02/04 08:55:12;;;;;;;12.27;9.15;;;;;;;;;;10330114;28;20096;-49
2023/02/04 09:00:13;;;;;;;17.42;9.10;;;;;;;;;;10350556;28;20393;-49
2023/02/04 09:05:14;;;;;;;30.30;17.80;;;;;;;;;;10342855;28;20026;-50
2023/02/04 09:10:15;;;;;;;36.80;20.38;;;;;;;;;;10327118;28;20394;-49
2023/02/04 09:15:16;;;;;;;31.38;19.75;;;;;;;;;;10326989;28;20033;-50
2023/02/04 09:20:17;;;;;;;32.03;18.27;;;;;;;;;;10325952;28;20030;-64
2023/02/04 09:25:17;;;;;;;34.15;17.95;;;;;;;;;;10325627;28;20030;-67
2023/02/04 09:30:18;;;;;;;26.85;16.88;;;;;;;;;;10328138;28;20053;-64
2023/02/04 09:35:18;;;;;;;35.78;18.30;;;;;;;;;;10340462;28;20042;-49
2023/02/04 09:40:19;;;;;;;35.00;17.10;;;;;;;;;;10344814;28;20038;-59
2023/02/04 09:45:29;;;;;;;37.58;19.13;;;;;;;;;;10334795;28;20046;-58
2023/02/04 09:50:31;;;;;;;50.83;23.60;;;;;;;;;;10315766;28;20490;-52
2023/02/04 09:55:37;;;;;;;43.92;25.10;;;;;;;;;;10331869;28;20033;-52
2023/02/04 10:00:38;;;;;;;38.83;22.40;;;;;;;;;;10333747;28;20521;-49
2023/02/04 10:05:38;;;;;;;38.42;22.00;;;;;;;;;;10343061;28;20185;-50
2023/02/04 10:10:39;;;;;;;33.30;20.23;;;;;;;;;;10339484;28;20093;-50
2023/02/04 10:15:40;;;;;;;34.95;20.02;;;;;;;;;;10331942;28;20560;-51
2023/02/04 10:20:40;;;;;;;40.13;19.27;;;;;;;;;;10330977;28;20506;-67
2023/02/04 10:25:41;;;;;;;33.67;19.63;;;;;;;;;;10332876;28;20022;-64
2023/02/04 10:30:42;;;;;;;35.97;20.23;;;;;;;;;;10332214;28;20084;-52
2023/02/04 10:35:49;;;;;;;39.35;21.35;;;;;;;;;;10365902;23;20112;-45
2023/02/04 10:41:04;;;;;;;31.92;18.48;;;;;;;;;;10411581;28;20033;-47
2023/02/04 10:46:05;;;;;;;31.38;18.30;;;;;;;;;;10394283;28;20470;-47
2023/02/04 10:51:07;;;;;;;26.63;19.02;;;;;;;;;;10345744;28;20026;-49
2023/02/04 10:56:26;;;;;;;27.38;17.90;;;;;;;;;;10336833;28;20034;-53
2023/02/04 11:01:28;;;;;;;35.97;18.63;;;;;;;;;;10341291;28;20040;-52
2023/02/04 11:06:29;;;;;;;35.08;19.27;;;;;;;;;;10360620;28;20030;-60
2023/02/04 11:11:30;;;;;;;34.33;19.42;;;;;;;;;;10347055;28;20041;-57
2023/02/04 11:16:45;;;;;;;30.30;18.85;;;;;;;;;;10341817;28;20025;-53
2023/02/04 11:21:46;;;;;;;33.20;19.15;;;;;;;;;;10360623;28;20049;-46
2023/02/04 11:26:51;;;;;;;29.58;19.63;;;;;;;;;;10340689;28;20025;-48
2023/02/04 11:31:51;;;;;;;32.65;19.20;;;;;;;;;;10350047;28;20044;-51
2023/02/04 11:37:01;;;;;;;29.40;19.58;;;;;;;;;;10355208;28;20049;-46
2023/02/04 11:42:03;;;;;;;36.28;20.73;;;;;;;;;;10355694;28;20352;-46
2023/02/04 11:47:07;;;;;;;41.28;19.80;;;;;;;;;;10348618;28;20119;-49
2023/02/04 11:52:13;;;;;;;29.80;19.17;;;;;;;;;;10356244;28;20025;-53
2023/02/04 11:57:13;;;;;;;32.92;21.55;;;;;;;;;;10341414;28;20375;-51
2023/02/04 12:02:26;;;;;;;32.42;21.17;;;;;;;;;;10334148;28;20040;-50
2023/02/04 12:07:28;;;;;;;38.58;21.58;;;;;;;;;;10349957;28;20486;-54
2023/02/04 12:12:30;;;;;;;35.70;21.50;;;;;;;;;;10342283;28;20108;-52
2023/02/04 12:17:30;;;;;;;32.92;20.52;;;;;;;;;;10344164;28;20076;-56
2023/02/04 12:22:31;;;;;;;33.58;20.98;;;;;;;;;;10341131;28;20026;-50
2023/02/04 12:27:32;;;;;;;32.83;20.05;;;;;;;;;;10353788;28;20026;-51
2023/02/04 12:32:32;;;;;;;31.48;20.48;;;;;;;;;;10347878;28;20370;-51
2023/02/04 12:37:33;;;;;;;30.63;19.92;;;;;;;;;;10347831;28;20046;-51
2023/02/04 12:42:33;;;;;;;31.92;18.75;;;;;;;;;;10343880;28;20383;-50
2023/02/04 12:47:34;;;;;;;30.13;19.98;;;;;;;;;;10358933;28;20026;-52
2023/02/04 12:52:35;;;;;;;26.65;19.55;;;;;;;;;;10345359;28;20038;-52
2023/02/04 12:57:36;;;;;;;28.73;19.10;;;;;;;;;;10346108;28;20117;-52
2023/02/04 13:02:37;;;;;;;25.67;18.27;;;;;;;;;;10332691;28;20393;-51
2023/02/04 13:07:39;;;;;;;30.05;18.95;;;;;;;;;;10345637;28;20053;-51
2023/02/04 13:12:40;;;;;;;32.42;19.52;;;;;;;;;;10358893;28;20037;-51
2023/02/04 13:17:40;;;;;;;28.00;18.17;;;;;;;;;;10359810;28;20049;-54
2023/02/04 13:22:41;;;;;;;30.20;18.92;;;;;;;;;;10364410;28;20030;-49
2023/02/04 13:27:42;;;;;;;27.27;18.88;;;;;;;;;;10375763;28;20030;-51
2023/02/04 13:32:42;;;;;;;34.70;19.13;;;;;;;;;;10372284;28;20026;-51
2023/02/04 13:37:43;;;;;;;31.42;19.88;;;;;;;;;;10361422;28;20107;-52
2023/02/04 13:42:44;;;;;;;27.92;18.85;;;;;;;;;;10348570;28;20032;-51
2023/02/04 13:47:46;;;;;;;29.00;20.00;;;;;;;;;;10339763;28;20139;-48
2023/02/04 13:52:47;;;;;;;35.95;22.35;;;;;;;;;;10341175;28;20036;-48
2023/02/04 13:57:47;;;;;;;39.97;24.58;;;;;;;;;;10345430;28;20037;-50
2023/02/04 14:02:48;;;;;;;39.08;24.83;;;;;;;;;;10341157;28;20217;-53
2023/02/04 14:07:49;;;;;;;44.75;25.75;;;;;;;;;;10350157;28;20038;-46
2023/02/04 14:12:50;;;;;;;50.10;28.00;;;;;;;;;;10370370;28;20029;-53
2023/02/04 14:17:51;;;;;;;39.65;26.42;;;;;;;;;;10350024;28;20034;-51
2023/02/04 14:22:51;;;;;;;53.58;28.27;;;;;;;;;;10368820;28;20461;-49
2023/02/04 14:27:52;;;;;;;44.30;27.05;;;;;;;;;;10352440;28;20478;-46
2023/02/04 14:32:54;;;;;;;49.05;27.42;;;;;;;;;;10354742;28;20421;-53
2023/02/04 14:37:55;;;;;;;45.45;25.67;;;;;;;;;;10358201;28;20050;-48
2023/02/04 14:42:55;;;;;;;43.38;25.73;;;;;;;;;;10347599;28;20037;-47
2023/02/04 14:47:59;;;;;;;41.38;26.00;;;;;;;;;;10336318;28;20050;-52
2023/02/04 14:52:59;;;;;;;51.80;25.88;;;;;;;;;;10334870;28;20070;-45
2023/02/04 14:58:00;;;;;;;41.72;25.77;;;;;;;;;;10333723;28;20505;-50
2023/02/04 15:03:00;;;;;;;47.40;25.48;;;;;;;;;;10344547;28;20053;-48
2023/02/04 15:08:01;;;;;;;35.03;24.27;;;;;;;;;;10342190;28;20026;-45
2023/02/04 15:13:02;;;;;;;38.92;23.95;;;;;;;;;;10342045;28;20067;-47
2023/02/04 15:18:02;;;;;;;51.33;25.88;;;;;;;;;;10344032;28;20026;-44
2023/02/04 15:23:03;;;;;;;36.00;23.20;;;;;;;;;;10355394;28;20038;-50
2023/02/04 15:28:03;;;;;;;42.38;22.38;;;;;;;;;;10360314;28;20033;-48
2023/02/04 15:33:04;;;;;;;36.53;21.75;;;;;;;;;;10350302;28;20042;-50
2023/02/04 15:38:04;;;;;;;37.05;22.58;;;;;;;;;;10364351;28;20054;-48
2023/02/04 15:43:05;;;;;;;37.00;21.75;;;;;;;;;;10358732;28;20257;-48
2023/02/04 15:48:07;;;;;;;35.63;21.98;;;;;;;;;;10358603;28;20038;-48
2023/02/04 15:53:07;;;;;;;33.17;22.25;;;;;;;;;;10366160;28;20026;-50
2023/02/04 15:58:08;;;;;;;34.60;20.35;;;;;;;;;;10359111;28;20573;-51
2023/02/04 16:03:09;;;;;;;30.40;20.92;;;;;;;;;;10356192;28;20456;-48
2023/02/04 16:08:10;;;;;;;34.55;20.17;;;;;;;;;;10362501;28;20073;-48
2023/02/04 16:13:10;;;;;;;29.45;20.52;;;;;;;;;;10340345;28;20451;-49
2023/02/04 16:18:11;;;;;;;32.03;20.67;;;;;;;;;;10343482;28;20030;-47
2023/02/04 16:23:11;;;;;;;36.38;19.85;;;;;;;;;;10354304;28;20049;-49
2023/02/04 16:28:12;;;;;;;31.42;19.73;;;;;;;;;;10366200;28;20408;-50
2023/02/04 16:33:13;;;;;;;30.05;19.42;;;;;;;;;;10355597;28;20159;-51
2023/02/04 16:38:17;;;;;;;29.67;19.50;;;;;;;;;;10352649;28;20046;-48
2023/02/04 16:43:18;;;;;;;26.15;18.50;;;;;;;;;;10335041;28;20046;-52
2023/02/04 16:48:18;;;;;;;27.98;18.30;;;;;;;;;;10345852;28;20482;-52
2023/02/04 16:53:19;;;;;;;27.88;18.52;;;;;;;;;;10350238;28;20025;-46
2023/02/04 16:58:20;;;;;;;27.85;18.88;;;;;;;;;;10368880;28;20459;-46
2023/02/04 17:03:20;;;;;;;28.88;18.45;;;;;;;;;;10361508;28;20045;-45
2023/02/04 17:08:21;;;;;;;27.60;18.35;;;;;;;;;;10362745;28;20032;-45
2023/02/04 17:13:22;;;;;;;29.65;17.08;;;;;;;;;;10351754;28;20089;-49
2023/02/04 17:18:22;;;;;;;27.13;17.73;;;;;;;;;;10351459;28;20030;-45
2023/02/04 17:23:24;;;;;;;51.22;25.88;;;;;;;;;;10338242;28;20489;-53
2023/02/04 17:28:25;;;;;;;57.00;28.35;;;;;;;;;;10353527;28;20065;-54
2023/02/04 17:33:27;;;;;;;49.13;25.65;;;;;;;;;;10354760;28;20034;-46
2023/02/04 17:38:28;;;;;;;67.75;32.38;;;;;;;;;;10342692;28;20130;-47
2023/02/04 17:43:28;;;;;;;173.02;75.35;;;;;;;;;;10341197;28;20031;-47
2023/02/04 17:48:29;;;;;;;239.55;99.63;;;;;;;;;;10338171;28;20030;-45
2023/02/04 17:53:29;;;;;;;256.45;109.68;;;;;;;;;;10341254;28;20399;-46
2023/02/04 17:58:30;;;;;;;263.70;111.80;;;;;;;;;;10348197;28;20053;-48
2023/02/04 18:03:31;;;;;;;258.02;112.13;;;;;;;;;;10337852;28;20029;-47
2023/02/04 18:08:38;;;;;;;261.38;107.95;;;;;;;;;;10339932;28;20121;-47
2023/02/04 18:13:39;;;;;;;237.63;100.43;;;;;;;;;;10334195;28;20034;-51
2023/02/04 18:18:40;;;;;;;231.30;99.28;;;;;;;;;;10351424;28;20389;-47
2023/02/04 18:23:40;;;;;;;230.20;93.60;;;;;;;;;;10347341;28;20038;-46
2023/02/04 18:28:44;;;;;;;221.90;92.57;;;;;;;;;;10361123;28;20030;-46
2023/02/04 18:33:46;;;;;;;210.63;92.50;;;;;;;;;;10363180;28;20054;-46
2023/02/04 18:38:47;;;;;;;211.90;88.03;;;;;;;;;;10340743;28;20058;-48
2023/02/04 18:44:01;;;;;;;203.60;85.07;;;;;;;;;;10350803;28;20209;-45
2023/02/04 18:49:15;;;;;;;210.55;87.00;;;;;;;;;;10365493;28;20262;-44
2023/02/04 18:54:34;;;;;;;184.57;80.88;;;;;;;;;;10352770;28;20393;-53
2023/02/04 18:59:35;;;;;;;182.10;81.15;;;;;;;;;;10346637;28;20045;-49
2023/02/04 19:04:35;;;;;;;186.45;77.95;;;;;;;;;;10355382;28;20482;-52
2023/02/04 19:09:36;;;;;;;173.27;77.53;;;;;;;;;;10351914;28;20152;-46
2023/02/04 19:14:43;;;;;;;177.80;75.53;;;;;;;;;;10336964;28;20034;-50
2023/02/04 19:20:14;;;;;;;172.95;74.70;;;;;;;;;;10348260;28;20026;-61
2023/02/04 19:25:42;;;;;;;164.95;72.45;;;;;;;;;;10346227;28;20027;-62
2023/02/04 19:31:06;;;;;;;164.35;72.57;;;;;;;;;;10361092;28;20177;-50
2023/02/04 19:36:32;;;;;;;162.25;71.53;;;;;;;;;;10359388;28;20049;-49
2023/02/04 19:41:49;;;;;;;158.10;69.10;;;;;;;;;;10346443;28;20121;-47
2023/02/04 19:46:49;;;;;;;158.95;69.80;;;;;;;;;;10348634;28;20034;-46
2023/02/04 19:51:57;;;;;;;157.25;66.43;;;;;;;;;;10352712;28;20034;-47
2023/02/04 19:56:58;;;;;;;151.30;67.07;;;;;;;;;;10356626;28;20030;-60
2023/02/04 20:02:34;;;;;;;141.50;60.45;;;;;;;;;;10358647;28;20870;-54
2023/02/04 20:07:37;;;;;;;141.93;61.00;;;;;;;;;;10343887;28;20038;-58
2023/02/04 20:12:40;;;;;;;145.55;62.10;;;;;;;;;;10332570;28;20065;-49
2023/02/04 20:17:45;;;;;;;137.57;60.08;;;;;;;;;;10344694;28;20509;-50
2023/02/04 20:22:58;;;;;;;133.15;56.88;;;;;;;;;;10363650;28;20391;-51
2023/02/04 20:30:59;;;;;;;132.82;56.83;;;;;;;;;;10524661;28;20899;-63
2023/02/04 20:36:25;;;;;;;126.45;55.17;;;;;;;;;;10497521;28;20040;-66
2023/02/04 20:41:26;;;;;;;123.38;56.10;;;;;;;;;;10514785;28;20039;-65
2023/02/04 20:46:26;;;;;;;119.00;55.40;;;;;;;;;;10515333;28;20392;-66
2023/02/04 20:51:27;;;;;;;113.00;53.90;;;;;;;;;;10511142;28;20036;-70
2023/02/04 20:56:34;;;;;;;108.28;50.60;;;;;;;;;;10504135;28;20024;-65
2023/02/04 21:01:37;;;;;;;108.85;48.22;;;;;;;;;;10516305;28;20051;-66
2023/02/04 21:06:38;;;;;;;104.68;47.80;;;;;;;;;;10498091;28;20028;-69
2023/02/04 21:11:39;;;;;;;102.03;47.78;;;;;;;;;;10495888;28;20036;-66
2023/02/04 21:16:39;;;;;;;104.70;46.25;;;;;;;;;;10497768;28;20024;-66
2023/02/04 21:21:40;;;;;;;102.20;45.25;;;;;;;;;;10510730;28;20012;-66
2023/02/04 21:26:41;;;;;;;101.07;45.42;;;;;;;;;;10515759;28;20211;-66
2023/02/04 21:31:42;;;;;;;104.38;44.58;;;;;;;;;;10523184;28;20060;-67
2023/02/04 21:36:42;;;;;;;91.75;42.38;;;;;;;;;;10518151;28;20115;-66
2023/02/04 21:41:43;;;;;;;105.30;45.55;;;;;;;;;;10497677;28;20360;-65
2023/02/04 21:46:43;;;;;;;102.70;44.22;;;;;;;;;;10489256;28;20419;-66
2023/02/04 21:51:44;;;;;;;91.47;38.53;;;;;;;;;;10500914;28;20037;-67
2023/02/04 21:56:45;;;;;;;95.40;41.45;;;;;;;;;;10488739;28;20033;-67
2023/02/04 22:01:45;;;;;;;94.75;41.83;;;;;;;;;;10485298;28;20033;-67
2023/02/04 22:06:46;;;;;;;87.47;39.00;;;;;;;;;;10491785;28;20039;-67
2023/02/04 22:11:47;;;;;;;86.85;37.05;;;;;;;;;;10474437;28;20028;-67
2023/02/04 22:16:48;;;;;;;90.75;37.83;;;;;;;;;;10472620;28;20380;-66
2023/02/04 22:21:48;;;;;;;80.38;36.90;;;;;;;;;;10492059;28;20028;-66
2023/02/04 22:26:50;;;;;;;75.00;36.58;;;;;;;;;;10493575;28;20086;-65
2023/02/04 22:31:51;;;;;;;80.70;35.97;;;;;;;;;;10490991;28;20536;-65
2023/02/04 22:36:52;;;;;;;75.45;35.28;;;;;;;;;;10493278;28;20074;-66
2023/02/04 22:41:53;;;;;;;74.63;33.38;;;;;;;;;;10491238;28;20483;-65
2023/02/04 22:46:53;;;;;;;72.18;31.50;;;;;;;;;;10492422;28;20032;-65
2023/02/04 22:51:54;;;;;;;78.35;33.17;;;;;;;;;;10477108;28;20056;-65
2023/02/04 22:56:56;;;;;;;74.65;33.78;;;;;;;;;;10492417;28;20017;-65
2023/02/04 23:01:57;;;;;;;67.63;30.98;;;;;;;;;;10490416;28;20160;-67
2023/02/04 23:06:59;;;;;;;70.78;30.98;;;;;;;;;;10486702;28;20195;-67
2023/02/04 23:12:11;;;;;;;67.43;30.67;;;;;;;;;;10491973;28;20452;-67
2023/02/04 23:17:13;;;;;;;66.57;31.27;;;;;;;;;;10483559;28;20033;-66
2023/02/04 23:22:15;;;;;;;63.60;29.33;;;;;;;;;;10492296;28;20028;-66
2023/02/04 23:27:16;;;;;;;63.80;30.13;;;;;;;;;;10488415;28;20059;-67
2023/02/04 23:32:16;;;;;;;56.88;27.30;;;;;;;;;;10491008;28;20029;-66
2023/02/04 23:37:17;;;;;;;60.60;27.90;;;;;;;;;;10489584;28;20046;-66
2023/02/04 23:42:17;;;;;;;57.03;27.73;;;;;;;;;;10491157;28;20016;-66
2023/02/04 23:47:18;;;;;;;65.72;28.10;;;;;;;;;;10483348;28;20029;-65
2023/02/04 23:52:18;;;;;;;57.78;25.60;;;;;;;;;;10482663;28;20033;-66
2023/02/04 23:57:19;;;;;;;61.58;27.55;;;;;;;;;;10490330;28;20082;-66
